Time;durP1;ratioP1;P1;durP2;ratioP2;P2;SDS_P1;SDS_P2;PMS_P1;PMS_P2;Temp;Humidity;BMP_temperature;BMP_pressure;BME280_temperature;BME280_humidity;BME280_pressure;Samples;Min_cycle;Max_cycle;Signal;HPM_P1;HPM_P2
2023/12/29 00:02:15;;;;;;;10.60;2.42;;;;;;;;;;5057672;28;20044;-90
2023/12/29 00:04:59;;;;;;;8.70;2.00;;;;;;;;;;5047996;28;20067;-91
2023/12/29 00:07:44;;;;;;;11.18;2.58;;;;;;;;;;5038545;28;20098;-89
2023/12/29 00:10:29;;;;;;;11.45;2.40;;;;;;;;;;5067498;28;20044;-88
2023/12/29 00:13:13;;;;;;;10.23;2.47;;;;;;;;;;5072603;28;20117;-89
2023/12/29 00:15:58;;;;;;;16.40;2.97;;;;;;;;;;5071731;28;20036;-88
2023/12/29 00:18:43;;;;;;;11.55;2.38;;;;;;;;;;5071614;28;20044;-89
2023/12/29 00:21:27;;;;;;;13.50;2.60;;;;;;;;;;5057189;28;20100;-88
2023/12/29 00:24:11;;;;;;;17.77;2.97;;;;;;;;;;5066222;28;20048;-88
2023/12/29 00:26:56;;;;;;;12.15;3.03;;;;;;;;;;5055806;28;20082;-89
2023/12/29 00:29:41;;;;;;;7.38;1.83;;;;;;;;;;5071688;28;20039;-89
2023/12/29 00:32:25;;;;;;;14.30;3.33;;;;;;;;;;5057606;28;20205;-90
2023/12/29 00:35:10;;;;;;;9.70;2.25;;;;;;;;;;5030349;28;20036;-88
2023/12/29 00:37:54;;;;;;;12.38;2.78;;;;;;;;;;5071707;28;20298;-87
2023/12/29 00:40:39;;;;;;;9.40;2.03;;;;;;;;;;5056476;28;20048;-87
2023/12/29 00:43:23;;;;;;;12.07;3.17;;;;;;;;;;5056577;28;20068;-87
2023/12/29 00:46:08;;;;;;;9.50;2.42;;;;;;;;;;5056682;28;20161;-87
2023/12/29 00:48:53;;;;;;;8.90;2.35;;;;;;;;;;5071610;28;20136;-86
2023/12/29 00:51:41;;;;;;;16.27;2.80;;;;;;;;;;5058973;28;20047;-88
2023/12/29 00:54:26;;;;;;;12.02;2.53;;;;;;;;;;5041919;28;20542;-87
2023/12/29 00:57:10;;;;;;;15.98;2.88;;;;;;;;;;5071961;28;20440;-86
2023/12/29 00:59:55;;;;;;;9.40;3.15;;;;;;;;;;5052487;28;20091;-87
2023/12/29 01:02:40;;;;;;;15.18;4.15;;;;;;;;;;5053871;28;20115;-89
2023/12/29 01:05:25;;;;;;;11.15;3.08;;;;;;;;;;5071095;28;20413;-89
2023/12/29 01:08:09;;;;;;;22.23;4.00;;;;;;;;;;5071702;28;20051;-87
2023/12/29 01:10:54;;;;;;;12.02;3.08;;;;;;;;;;5065019;28;20036;-87
2023/12/29 01:13:38;;;;;;;23.35;4.10;;;;;;;;;;5049280;28;20040;-88
2023/12/29 01:16:23;;;;;;;15.23;3.00;;;;;;;;;;5062971;28;20078;-87
2023/12/29 01:19:07;;;;;;;17.30;3.33;;;;;;;;;;5053461;28;20035;-87
2023/12/29 01:21:52;;;;;;;16.33;3.92;;;;;;;;;;5070761;28;20039;-91
2023/12/29 01:24:36;;;;;;;14.32;3.22;;;;;;;;;;5070647;28;20082;-86
2023/12/29 01:27:21;;;;;;;17.30;4.20;;;;;;;;;;5048011;28;20114;-90
2023/12/29 01:30:06;;;;;;;19.05;4.47;;;;;;;;;;5030076;28;20047;-88
2023/12/29 01:32:51;;;;;;;13.95;3.10;;;;;;;;;;5070083;28;20396;-88
2023/12/29 01:35:36;;;;;;;14.93;3.33;;;;;;;;;;5070805;28;20111;-85
2023/12/29 01:38:21;;;;;;;19.23;4.55;;;;;;;;;;5069557;28;20107;-87
2023/12/29 01:41:06;;;;;;;12.35;3.80;;;;;;;;;;5070433;28;20047;-87
2023/12/29 01:43:56;;;;;;;15.00;3.05;;;;;;;;;;5053081;28;20122;-87
2023/12/29 01:46:41;;;;;;;18.40;4.38;;;;;;;;;;5049664;28;20043;-86
2023/12/29 01:49:26;;;;;;;13.68;3.67;;;;;;;;;;5070828;28;20511;-88
2023/12/29 01:52:11;;;;;;;17.80;4.22;;;;;;;;;;5052442;28;20074;-88
2023/12/29 01:54:55;;;;;;;18.13;4.15;;;;;;;;;;5070467;28;20039;-88
2023/12/29 01:57:40;;;;;;;15.82;3.53;;;;;;;;;;5055002;28;20103;-86
2023/12/29 02:00:26;;;;;;;20.58;4.15;;;;;;;;;;5044060;28;20103;-88
2023/12/29 02:03:11;;;;;;;14.93;2.92;;;;;;;;;;5059688;28;20039;-87
2023/12/29 02:05:55;;;;;;;16.58;3.67;;;;;;;;;;5042280;28;20077;-88
2023/12/29 02:08:43;;;;;;;16.33;3.95;;;;;;;;;;5070532;28;20044;-86
2023/12/29 02:11:28;;;;;;;11.93;2.75;;;;;;;;;;5070952;28;20395;-87
2023/12/29 02:14:13;;;;;;;10.50;2.97;;;;;;;;;;5071091;28;20404;-86
2023/12/29 02:17:22;;;;;;;9.55;1.83;;;;;;;;;;5074001;28;20043;-86
2023/12/29 02:20:08;;;;;;;9.57;1.63;;;;;;;;;;5059057;28;20400;-88
2023/12/29 02:22:52;;;;;;;9.32;1.30;;;;;;;;;;5074611;28;20138;-88
2023/12/29 02:25:37;;;;;;;7.22;1.45;;;;;;;;;;5055375;28;20090;-89
2023/12/29 02:28:25;;;;;;;11.15;1.50;;;;;;;;;;5069692;28;20051;-87
2023/12/29 02:31:18;;;;;;;11.40;2.00;;;;;;;;;;5058625;28;20035;-88
2023/12/29 02:34:06;;;;;;;13.68;1.75;;;;;;;;;;5045821;28;20079;-87
2023/12/29 02:36:51;;;;;;;12.50;2.50;;;;;;;;;;5047604;28;20039;-86
2023/12/29 02:39:36;;;;;;;13.63;2.15;;;;;;;;;;5040945;28;20082;-86
2023/12/29 02:42:21;;;;;;;16.40;3.65;;;;;;;;;;5059383;28;20093;-87
2023/12/29 02:45:06;;;;;;;11.68;2.85;;;;;;;;;;5073926;28;20280;-87
2023/12/29 02:47:50;;;;;;;22.23;3.97;;;;;;;;;;5058188;28;20075;-87
2023/12/29 02:50:35;;;;;;;13.60;4.28;;;;;;;;;;5053624;28;20584;-87
2023/12/29 02:53:19;;;;;;;20.90;3.50;;;;;;;;;;5062146;28;20401;-90
2023/12/29 02:56:04;;;;;;;19.80;2.88;;;;;;;;;;5073336;28;20404;-88
2023/12/29 02:58:51;;;;;;;13.52;2.90;;;;;;;;;;5046072;28;20401;-87
2023/12/29 03:01:35;;;;;;;14.25;2.88;;;;;;;;;;5048144;28;20499;-88
2023/12/29 03:04:20;;;;;;;16.95;2.83;;;;;;;;;;5058804;28;20090;-88
2023/12/29 03:07:05;;;;;;;15.13;3.17;;;;;;;;;;5045118;28;20448;-90
2023/12/29 03:09:49;;;;;;;23.52;3.58;;;;;;;;;;5064435;28;20044;-86
2023/12/29 03:12:34;;;;;;;26.60;4.10;;;;;;;;;;5044363;28;20071;-89
2023/12/29 03:15:19;;;;;;;16.92;3.80;;;;;;;;;;5058384;28;20063;-88
2023/12/29 03:18:04;;;;;;;16.45;4.35;;;;;;;;;;5073689;28;20094;-90
2023/12/29 03:20:49;;;;;;;22.55;5.70;;;;;;;;;;5032691;28;20409;-87
2023/12/29 03:23:34;;;;;;;16.20;3.63;;;;;;;;;;5073330;28;20039;-88
2023/12/29 03:26:18;;;;;;;16.90;3.50;;;;;;;;;;5057925;28;20040;-88
2023/12/29 03:29:03;;;;;;;9.30;2.75;;;;;;;;;;5067184;28;20043;-89
2023/12/29 03:31:47;;;;;;;17.83;4.18;;;;;;;;;;5058554;28;20064;-92
2023/12/29 03:34:32;;;;;;;23.33;4.57;;;;;;;;;;5073115;28;20090;-88
2023/12/29 03:37:17;;;;;;;16.05;3.67;;;;;;;;;;5072499;28;20127;-88
2023/12/29 03:40:01;;;;;;;19.77;3.85;;;;;;;;;;5072665;28;20040;-89
2023/12/29 03:42:46;;;;;;;20.23;5.22;;;;;;;;;;5057745;28;20549;-88
2023/12/29 03:45:30;;;;;;;31.00;4.30;;;;;;;;;;5058513;28;20595;-89
2023/12/29 03:48:14;;;;;;;20.30;3.78;;;;;;;;;;5056954;28;20148;-89
2023/12/29 03:50:59;;;;;;;14.48;2.58;;;;;;;;;;5056947;28;20060;-90
2023/12/29 03:53:44;;;;;;;19.95;3.33;;;;;;;;;;5073225;28;20123;-88
2023/12/29 03:56:28;;;;;;;24.55;3.92;;;;;;;;;;5044199;28;20106;-90
2023/12/29 03:59:12;;;;;;;23.30;3.72;;;;;;;;;;5057005;28;20042;-89
2023/12/29 04:01:57;;;;;;;16.00;3.10;;;;;;;;;;5057456;28;20035;-87
2023/12/29 04:04:42;;;;;;;21.60;3.90;;;;;;;;;;5061452;28;20040;-88
2023/12/29 04:07:26;;;;;;;21.60;4.13;;;;;;;;;;5057052;28;20047;-89
2023/12/29 04:10:11;;;;;;;16.55;4.82;;;;;;;;;;5057286;28;20055;-88
2023/12/29 04:12:56;;;;;;;21.40;4.10;;;;;;;;;;5033810;28;20404;-89
2023/12/29 04:15:40;;;;;;;18.40;3.75;;;;;;;;;;5057607;28;20102;-90
2023/12/29 04:18:25;;;;;;;29.73;4.40;;;;;;;;;;5072142;28;20047;-88
2023/12/29 04:21:14;;;;;;;26.77;5.18;;;;;;;;;;5072190;28;20512;-89
2023/12/29 04:23:58;;;;;;;26.73;5.28;;;;;;;;;;5059938;28;20109;-90
2023/12/29 04:26:43;;;;;;;18.88;3.35;;;;;;;;;;5072113;28;20043;-89
2023/12/29 04:29:28;;;;;;;22.45;4.80;;;;;;;;;;5056664;28;20079;-88
2023/12/29 04:32:12;;;;;;;18.05;3.80;;;;;;;;;;5056636;28;20044;-89
2023/12/29 04:34:57;;;;;;;26.60;4.32;;;;;;;;;;5062405;28;20121;-89
2023/12/29 04:37:43;;;;;;;19.30;3.75;;;;;;;;;;5071025;28;20403;-89
2023/12/29 04:40:28;;;;;;;28.85;4.30;;;;;;;;;;5071915;28;20404;-89
2023/12/29 04:43:12;;;;;;;19.38;4.72;;;;;;;;;;5057487;28;20089;-87
2023/12/29 04:45:57;;;;;;;23.60;4.78;;;;;;;;;;5072026;28;20066;-87
2023/12/29 04:48:41;;;;;;;30.45;5.13;;;;;;;;;;5046431;28;20094;-88
2023/12/29 04:51:26;;;;;;;25.95;4.32;;;;;;;;;;5056322;28;20681;-89
2023/12/29 04:54:10;;;;;;;24.45;3.85;;;;;;;;;;5055899;28;20048;-89
2023/12/29 04:56:55;;;;;;;16.52;3.88;;;;;;;;;;5058563;28;20058;-89
2023/12/29 04:59:40;;;;;;;19.25;3.53;;;;;;;;;;5076033;28;20442;-89
2023/12/29 05:02:24;;;;;;;23.67;4.00;;;;;;;;;;5091568;28;20047;-89
2023/12/29 05:05:10;;;;;;;19.83;4.47;;;;;;;;;;5091659;28;20050;-89
2023/12/29 05:07:54;;;;;;;29.70;4.25;;;;;;;;;;5076710;28;20101;-89
2023/12/29 05:10:38;;;;;;;25.17;4.85;;;;;;;;;;5076338;28;20078;-88
2023/12/29 05:13:23;;;;;;;29.98;4.45;;;;;;;;;;5062190;28;20039;-89
2023/12/29 05:16:08;;;;;;;17.55;4.00;;;;;;;;;;5057583;28;20122;-87
2023/12/29 05:18:52;;;;;;;28.95;4.15;;;;;;;;;;5089565;28;20038;-88
2023/12/29 05:21:37;;;;;;;26.08;4.10;;;;;;;;;;5091576;28;20510;-89
2023/12/29 05:24:21;;;;;;;24.85;3.92;;;;;;;;;;5052121;28;20384;-88
2023/12/29 05:27:06;;;;;;;23.65;4.63;;;;;;;;;;5091024;28;20115;-88
2023/12/29 05:29:50;;;;;;;20.40;3.75;;;;;;;;;;5076059;28;20054;-88
2023/12/29 05:32:35;;;;;;;17.58;3.05;;;;;;;;;;5065936;28;20048;-88
2023/12/29 05:35:20;;;;;;;24.58;4.15;;;;;;;;;;5060860;28;20039;-88
2023/12/29 05:38:04;;;;;;;30.20;5.63;;;;;;;;;;5085887;28;20044;-88
2023/12/29 05:40:49;;;;;;;26.67;4.03;;;;;;;;;;5076571;28;20085;-88
2023/12/29 05:43:34;;;;;;;22.20;4.13;;;;;;;;;;5058676;28;20039;-89
2023/12/29 05:46:18;;;;;;;25.25;4.68;;;;;;;;;;5075527;28;20404;-88
2023/12/29 05:49:03;;;;;;;21.83;4.75;;;;;;;;;;5062046;28;20047;-88
2023/12/29 05:51:47;;;;;;;19.55;3.67;;;;;;;;;;5091382;28;20043;-88
2023/12/29 05:54:32;;;;;;;24.02;4.28;;;;;;;;;;5075288;28;20047;-89
2023/12/29 05:57:16;;;;;;;25.08;3.72;;;;;;;;;;5056146;28;20151;-88
2023/12/29 06:00:01;;;;;;;15.25;3.30;;;;;;;;;;5091091;28;20043;-88
2023/12/29 06:02:45;;;;;;;22.48;3.20;;;;;;;;;;5090645;28;20400;-88
2023/12/29 06:05:30;;;;;;;14.93;3.20;;;;;;;;;;5089576;28;20054;-88
2023/12/29 06:08:15;;;;;;;18.17;3.28;;;;;;;;;;5075708;28;20044;-89
2023/12/29 06:11:00;;;;;;;28.27;4.07;;;;;;;;;;5090344;28;20043;-89
2023/12/29 06:13:44;;;;;;;21.00;3.65;;;;;;;;;;5090828;28;20035;-88
2023/12/29 06:16:30;;;;;;;21.80;3.58;;;;;;;;;;5075360;28;20039;-80
2023/12/29 06:19:16;;;;;;;26.75;4.25;;;;;;;;;;5078494;28;20062;-84
2023/12/29 06:22:01;;;;;;;20.38;2.90;;;;;;;;;;5089923;28;20083;-85
2023/12/29 06:24:45;;;;;;;26.20;3.33;;;;;;;;;;5075336;28;20462;-87
2023/12/29 06:27:32;;;;;;;19.08;3.10;;;;;;;;;;5089562;28;20101;-86
2023/12/29 06:30:17;;;;;;;26.88;4.13;;;;;;;;;;5060770;28;20085;-85
2023/12/29 06:33:02;;;;;;;21.58;3.97;;;;;;;;;;5076469;28;20065;-84
2023/12/29 06:35:47;;;;;;;21.02;3.88;;;;;;;;;;5067280;28;20082;-84
2023/12/29 06:38:33;;;;;;;19.60;4.22;;;;;;;;;;5075239;28;20046;-87
2023/12/29 06:41:17;;;;;;;22.45;3.08;;;;;;;;;;5057594;28;20039;-85
2023/12/29 06:44:02;;;;;;;24.45;4.43;;;;;;;;;;5075979;28;20082;-85
2023/12/29 06:46:47;;;;;;;25.08;4.13;;;;;;;;;;5074966;28;20078;-84
2023/12/29 06:49:32;;;;;;;31.38;3.92;;;;;;;;;;5061121;28;20055;-85
2023/12/29 06:52:16;;;;;;;15.10;3.50;;;;;;;;;;5075922;28;20031;-85
2023/12/29 06:55:01;;;;;;;20.75;3.38;;;;;;;;;;5074929;28;20036;-85
2023/12/29 06:57:46;;;;;;;53.05;5.30;;;;;;;;;;5088496;28;20050;-86
2023/12/29 07:00:31;;;;;;;26.02;4.28;;;;;;;;;;5069269;28;20446;-86
2023/12/29 07:03:16;;;;;;;23.73;3.78;;;;;;;;;;5060383;28;20044;-86
2023/12/29 07:06:03;;;;;;;21.73;4.00;;;;;;;;;;5092269;28;20085;-86
2023/12/29 07:08:48;;;;;;;31.45;5.20;;;;;;;;;;5093550;28;20515;-87
2023/12/29 07:11:33;;;;;;;30.65;3.85;;;;;;;;;;5081524;28;20075;-86
2023/12/29 07:14:17;;;;;;;28.92;4.65;;;;;;;;;;5061917;28;20034;-86
2023/12/29 07:17:02;;;;;;;22.83;5.03;;;;;;;;;;5061229;28;20106;-88
2023/12/29 07:19:46;;;;;;;29.83;5.00;;;;;;;;;;5056699;28;20460;-86
2023/12/29 07:22:31;;;;;;;33.53;5.57;;;;;;;;;;5075996;28;20161;-87
2023/12/29 07:25:15;;;;;;;32.67;4.38;;;;;;;;;;5078139;28;20054;-87
2023/12/29 07:28:02;;;;;;;25.70;4.82;;;;;;;;;;5093252;28;20046;-86
2023/12/29 07:30:46;;;;;;;31.50;4.82;;;;;;;;;;5077612;28;20039;-85
2023/12/29 07:33:32;;;;;;;27.98;5.10;;;;;;;;;;5068606;28;20039;-88
2023/12/29 07:36:16;;;;;;;29.45;4.47;;;;;;;;;;5092352;28;20047;-89
2023/12/29 07:39:03;;;;;;;30.15;4.65;;;;;;;;;;5075877;28;20124;-86
2023/12/29 07:41:53;;;;;;;26.75;5.70;;;;;;;;;;5092896;28;20027;-87
2023/12/29 07:44:38;;;;;;;29.73;4.60;;;;;;;;;;5082870;28;20503;-88
2023/12/29 07:47:25;;;;;;;30.27;4.72;;;;;;;;;;5090338;28;20124;-86
2023/12/29 07:50:10;;;;;;;29.98;4.63;;;;;;;;;;5084867;28;20396;-87
2023/12/29 07:52:54;;;;;;;24.77;4.65;;;;;;;;;;5061007;28;20042;-86
2023/12/29 07:55:40;;;;;;;37.05;6.60;;;;;;;;;;5089028;28;20079;-88
2023/12/29 07:58:26;;;;;;;33.13;5.95;;;;;;;;;;5038091;28;20090;-88
2023/12/29 08:01:16;;;;;;;26.45;4.55;;;;;;;;;;5057558;28;20128;-89
2023/12/29 08:04:01;;;;;;;31.42;4.68;;;;;;;;;;5044240;28;20039;-87
2023/12/29 08:06:47;;;;;;;30.52;5.07;;;;;;;;;;5055207;28;20043;-89
2023/12/29 08:09:31;;;;;;;33.78;5.10;;;;;;;;;;5055702;28;20529;-87
2023/12/29 08:12:16;;;;;;;27.70;5.32;;;;;;;;;;5053253;28;20047;-86
2023/12/29 08:15:01;;;;;;;29.15;4.28;;;;;;;;;;5049440;28;20040;-87
2023/12/29 08:17:45;;;;;;;25.35;4.55;;;;;;;;;;5042651;28;20043;-86
2023/12/29 08:20:37;;;;;;;27.60;5.68;;;;;;;;;;5057284;28;20086;-86
2023/12/29 08:23:30;;;;;;;32.50;5.05;;;;;;;;;;5044391;28;20047;-86
2023/12/29 08:26:15;;;;;;;23.90;4.40;;;;;;;;;;5037558;28;20071;-85
2023/12/29 08:29:00;;;;;;;24.92;4.10;;;;;;;;;;5041658;28;20519;-87
2023/12/29 08:31:44;;;;;;;27.85;4.38;;;;;;;;;;5037291;28;20071;-87
2023/12/29 08:34:37;;;;;;;34.80;5.72;;;;;;;;;;5041125;28;20043;-87
2023/12/29 08:37:22;;;;;;;31.30;4.55;;;;;;;;;;5057248;28;20040;-87
2023/12/29 08:40:07;;;;;;;37.97;5.82;;;;;;;;;;5057045;28;20550;-87
2023/12/29 08:42:52;;;;;;;27.23;5.30;;;;;;;;;;5055784;28;20035;-86
2023/12/29 08:45:39;;;;;;;25.17;5.93;;;;;;;;;;5057268;28;20105;-86
2023/12/29 08:48:25;;;;;;;35.90;5.63;;;;;;;;;;5044072;28;20047;-86
2023/12/29 08:51:10;;;;;;;37.03;5.25;;;;;;;;;;5068684;28;20040;-86
2023/12/29 08:53:55;;;;;;;29.08;5.65;;;;;;;;;;5064269;28;20039;-87
2023/12/29 08:56:40;;;;;;;29.38;4.07;;;;;;;;;;5057235;28;20073;-87
2023/12/29 08:59:25;;;;;;;30.77;4.82;;;;;;;;;;5076228;28;20039;-87
2023/12/29 09:02:09;;;;;;;29.67;4.22;;;;;;;;;;5075979;28;20092;-87
2023/12/29 09:04:54;;;;;;;25.70;3.28;;;;;;;;;;5081253;28;20108;-88
2023/12/29 09:07:39;;;;;;;26.60;5.60;;;;;;;;;;5091903;28;20051;-87
2023/12/29 09:10:25;;;;;;;32.28;4.18;;;;;;;;;;5076487;28;20048;-88
2023/12/29 09:13:10;;;;;;;31.70;4.82;;;;;;;;;;5062719;28;20047;-88
2023/12/29 09:15:57;;;;;;;31.20;4.65;;;;;;;;;;5063475;28;20608;-87
2023/12/29 09:18:42;;;;;;;26.85;4.75;;;;;;;;;;5059609;28;20046;-87
2023/12/29 09:21:26;;;;;;;34.35;5.20;;;;;;;;;;5062696;28;20070;-87
2023/12/29 09:24:11;;;;;;;21.35;4.38;;;;;;;;;;5064258;28;20081;-88
2023/12/29 09:26:55;;;;;;;25.52;3.65;;;;;;;;;;5068533;28;20118;-87
2023/12/29 09:29:40;;;;;;;29.35;5.25;;;;;;;;;;5061967;28;20062;-87
2023/12/29 09:32:24;;;;;;;23.75;4.97;;;;;;;;;;5075513;28;20098;-87
2023/12/29 09:35:09;;;;;;;18.85;3.83;;;;;;;;;;5075699;28;20088;-87
2023/12/29 09:37:55;;;;;;;29.88;4.03;;;;;;;;;;5056056;28;20085;-87
2023/12/29 09:40:40;;;;;;;20.65;3.45;;;;;;;;;;5072394;28;20068;-87
2023/12/29 09:43:25;;;;;;;26.27;4.38;;;;;;;;;;5075605;28;20046;-87
2023/12/29 09:46:10;;;;;;;34.50;4.63;;;;;;;;;;5090877;28;20038;-87
2023/12/29 09:48:58;;;;;;;23.45;3.83;;;;;;;;;;5075682;28;20043;-87
2023/12/29 09:51:45;;;;;;;24.75;3.75;;;;;;;;;;5079607;28;20039;-88
2023/12/29 09:54:30;;;;;;;27.70;5.28;;;;;;;;;;5061508;28;20058;-88
2023/12/29 09:57:15;;;;;;;24.05;4.00;;;;;;;;;;5075451;28;20059;-88
2023/12/29 09:59:59;;;;;;;22.20;4.30;;;;;;;;;;5065941;28;20161;-87
2023/12/29 10:02:44;;;;;;;31.30;6.72;;;;;;;;;;5062456;28;20035;-88
2023/12/29 10:05:29;;;;;;;26.48;3.40;;;;;;;;;;5075323;28;20043;-87
2023/12/29 10:08:14;;;;;;;22.95;3.88;;;;;;;;;;5075338;28;20042;-87
2023/12/29 10:11:01;;;;;;;28.58;5.60;;;;;;;;;;5090465;28;20120;-87
2023/12/29 10:13:50;;;;;;;20.30;3.17;;;;;;;;;;5091013;28;20070;-87
2023/12/29 10:16:42;;;;;;;27.58;4.00;;;;;;;;;;5075863;28;20391;-88
2023/12/29 10:19:36;;;;;;;25.83;4.93;;;;;;;;;;5059879;28;20127;-88
2023/12/29 10:22:24;;;;;;;27.40;4.00;;;;;;;;;;5075937;28;20101;-87
2023/12/29 10:25:09;;;;;;;29.65;4.63;;;;;;;;;;5090137;28;20513;-88
2023/12/29 10:27:54;;;;;;;25.25;4.05;;;;;;;;;;5060337;28;20047;-89
2023/12/29 10:30:38;;;;;;;29.25;5.03;;;;;;;;;;5075011;28;20043;-87
2023/12/29 10:33:24;;;;;;;23.35;4.00;;;;;;;;;;5065686;28;20442;-88
2023/12/29 10:36:10;;;;;;;29.08;4.85;;;;;;;;;;5062488;28;20039;-87
2023/12/29 10:39:10;;;;;;;21.52;4.25;;;;;;;;;;5079070;28;20078;-88
2023/12/29 10:42:09;;;;;;;22.10;4.78;;;;;;;;;;5079139;28;20111;-90
2023/12/29 10:45:06;;;;;;;23.40;3.60;;;;;;;;;;5060895;28;20031;-89
2023/12/29 10:47:52;;;;;;;24.50;3.78;;;;;;;;;;5079172;28;20043;-87
2023/12/29 10:50:44;;;;;;;21.02;3.15;;;;;;;;;;5087850;28;20432;-89
2023/12/29 10:53:29;;;;;;;25.25;3.95;;;;;;;;;;5083685;28;20047;-87
2023/12/29 10:56:19;;;;;;;26.33;4.60;;;;;;;;;;5072504;28;20503;-90
2023/12/29 10:59:06;;;;;;;23.38;4.03;;;;;;;;;;5072331;28;20488;-87
2023/12/29 11:01:53;;;;;;;25.45;3.33;;;;;;;;;;5046752;28;20086;-87
2023/12/29 11:04:41;;;;;;;16.27;3.80;;;;;;;;;;5064328;28;20070;-86
2023/12/29 11:07:33;;;;;;;17.50;2.45;;;;;;;;;;5044702;28;20447;-88
2023/12/29 11:10:17;;;;;;;20.08;4.40;;;;;;;;;;5043901;28;20583;-84
2023/12/29 11:13:02;;;;;;;29.52;6.43;;;;;;;;;;5052754;28;20072;-85
2023/12/29 11:15:47;;;;;;;17.00;3.10;;;;;;;;;;5063396;28;20040;-87
2023/12/29 11:18:32;;;;;;;20.05;3.47;;;;;;;;;;5044068;28;20549;-88
2023/12/29 11:21:17;;;;;;;13.13;3.25;;;;;;;;;;5058114;28;20431;-89
2023/12/29 11:24:02;;;;;;;15.57;2.80;;;;;;;;;;5058370;28;20400;-91
2023/12/29 11:26:47;;;;;;;15.05;2.67;;;;;;;;;;5030867;28;20123;-91
2023/12/29 11:29:31;;;;;;;20.60;3.38;;;;;;;;;;5073226;28;20428;-89
2023/12/29 11:32:18;;;;;;;21.60;4.03;;;;;;;;;;5030747;28;20064;-92
2023/12/29 11:35:06;;;;;;;16.50;3.20;;;;;;;;;;5048584;28;20078;-88
2023/12/29 11:38:14;;;;;;;13.38;2.25;;;;;;;;;;5039163;28;20044;-86
2023/12/29 11:41:02;;;;;;;13.70;2.33;;;;;;;;;;5072886;28;20082;-87
2023/12/29 11:43:57;;;;;;;15.23;3.80;;;;;;;;;;5047660;28;20035;-86
2023/12/29 11:46:44;;;;;;;9.77;2.25;;;;;;;;;;5072736;28;20059;-89
2023/12/29 11:49:48;;;;;;;14.73;3.13;;;;;;;;;;5071508;28;20044;-87
2023/12/29 11:52:38;;;;;;;9.98;1.92;;;;;;;;;;5049103;28;20051;-86
2023/12/29 11:55:28;;;;;;;15.68;2.35;;;;;;;;;;5065657;28;20074;-87
2023/12/29 11:58:28;;;;;;;16.02;2.97;;;;;;;;;;5072066;28;20059;-88
2023/12/29 12:01:31;;;;;;;11.13;2.33;;;;;;;;;;5076972;28;20070;-88
2023/12/29 12:04:39;;;;;;;15.13;2.45;;;;;;;;;;5075344;28;20494;-87
2023/12/29 12:07:23;;;;;;;18.13;2.95;;;;;;;;;;5068315;28;20050;-88
2023/12/29 12:10:30;;;;;;;13.15;2.58;;;;;;;;;;5078072;28;20082;-88
2023/12/29 12:13:35;;;;;;;15.45;2.97;;;;;;;;;;5091465;28;20042;-88
2023/12/29 12:16:39;;;;;;;16.67;2.55;;;;;;;;;;5072940;28;20053;-87
2023/12/29 12:19:27;;;;;;;21.15;2.88;;;;;;;;;;5090001;28;20043;-83
2023/12/29 12:22:12;;;;;;;15.70;2.60;;;;;;;;;;5084112;28;20039;-88
2023/12/29 12:24:58;;;;;;;11.98;2.42;;;;;;;;;;5072665;28;20050;-87
2023/12/29 12:27:43;;;;;;;13.52;2.50;;;;;;;;;;5091355;28;20039;-86
2023/12/29 12:30:28;;;;;;;15.00;2.70;;;;;;;;;;5092358;28;20541;-87
2023/12/29 12:33:13;;;;;;;17.02;2.80;;;;;;;;;;5064348;28;20058;-90
2023/12/29 12:35:59;;;;;;;17.42;3.25;;;;;;;;;;5074975;28;20113;-87
2023/12/29 12:38:51;;;;;;;14.23;2.00;;;;;;;;;;5091903;28;20043;-86
2023/12/29 12:41:36;;;;;;;17.50;2.53;;;;;;;;;;5076199;28;20066;-84
2023/12/29 12:44:21;;;;;;;17.38;4.20;;;;;;;;;;5076636;28;20195;-87
2023/12/29 12:47:08;;;;;;;17.48;2.65;;;;;;;;;;5081965;28;20038;-87
2023/12/29 12:49:52;;;;;;;10.18;3.25;;;;;;;;;;5086565;28;20059;-87
2023/12/29 12:52:37;;;;;;;12.90;2.90;;;;;;;;;;5071294;28;20100;-89
2023/12/29 12:55:22;;;;;;;16.88;3.35;;;;;;;;;;5062888;28;20062;-89
2023/12/29 12:58:07;;;;;;;9.18;2.10;;;;;;;;;;5062120;28;20169;-88
2023/12/29 13:00:54;;;;;;;15.57;2.67;;;;;;;;;;5076985;28;20051;-88
2023/12/29 13:03:39;;;;;;;23.08;3.25;;;;;;;;;;5091670;28;20453;-85
2023/12/29 13:06:24;;;;;;;20.42;2.95;;;;;;;;;;5065081;28;20034;-93
2023/12/29 13:09:13;;;;;;;17.13;2.92;;;;;;;;;;5062559;28;20043;-93
2023/12/29 13:12:16;;;;;;;16.85;2.45;;;;;;;;;;5077234;28;20093;-91
2023/12/29 13:15:08;;;;;;;15.47;2.90;;;;;;;;;;5074459;28;20510;-95
2023/12/29 13:17:53;;;;;;;21.70;3.40;;;;;;;;;;5081841;28;20073;-92
2023/12/29 13:20:45;;;;;;;18.40;2.90;;;;;;;;;;5090490;28;20080;-92
2023/12/29 13:23:29;;;;;;;12.60;3.38;;;;;;;;;;5064103;28;20036;-89
2023/12/29 13:26:14;;;;;;;13.13;2.70;;;;;;;;;;5076678;28;20035;-88
2023/12/29 13:28:59;;;;;;;15.75;1.95;;;;;;;;;;5075745;28;20511;-91
2023/12/29 13:31:44;;;;;;;12.88;2.38;;;;;;;;;;5075723;28;20556;-92
2023/12/29 13:34:31;;;;;;;14.88;2.60;;;;;;;;;;5089789;28;20086;-91
2023/12/29 13:37:25;;;;;;;21.65;2.95;;;;;;;;;;5090754;28;20043;-92
2023/12/29 13:40:24;;;;;;;12.63;2.58;;;;;;;;;;5076462;28;20130;-92
2023/12/29 13:43:11;;;;;;;15.25;2.85;;;;;;;;;;5075539;28;20035;-93
2023/12/29 13:45:56;;;;;;;9.95;2.45;;;;;;;;;;5075982;28;20507;-91
2023/12/29 13:48:41;;;;;;;18.17;3.33;;;;;;;;;;5059855;28;20059;-93
2023/12/29 13:51:26;;;;;;;14.45;2.58;;;;;;;;;;5074182;28;20051;-90
2023/12/29 13:54:13;;;;;;;10.43;2.10;;;;;;;;;;5068734;28;20400;-91
2023/12/29 13:56:57;;;;;;;13.00;2.03;;;;;;;;;;5087896;28;20105;-92
2023/12/29 13:59:42;;;;;;;14.40;2.88;;;;;;;;;;5069464;28;20411;-91
2023/12/29 14:02:35;;;;;;;14.88;3.55;;;;;;;;;;5055490;28;20241;-91
2023/12/29 14:05:24;;;;;;;10.23;2.10;;;;;;;;;;5056035;28;20082;-92
2023/12/29 14:08:19;;;;;;;17.13;2.67;;;;;;;;;;5045750;28;20399;-91
2023/12/29 14:11:10;;;;;;;14.05;2.72;;;;;;;;;;5061876;28;20391;-92
2023/12/29 14:13:55;;;;;;;13.77;2.35;;;;;;;;;;5077289;28;20035;-92
2023/12/29 14:16:43;;;;;;;17.58;3.13;;;;;;;;;;5061895;28;20043;-93
2023/12/29 14:19:34;;;;;;;14.07;2.90;;;;;;;;;;5043327;28;20120;-91
2023/12/29 14:22:23;;;;;;;13.68;2.50;;;;;;;;;;5061788;28;20039;-91
2023/12/29 14:25:07;;;;;;;15.18;2.63;;;;;;;;;;5061447;28;20063;-91
2023/12/29 14:27:53;;;;;;;11.77;2.28;;;;;;;;;;5061890;28;20095;-90
2023/12/29 14:30:38;;;;;;;15.05;2.60;;;;;;;;;;5061622;28;20091;-89
2023/12/29 14:33:22;;;;;;;12.25;2.20;;;;;;;;;;5048668;28;20079;-90
2023/12/29 14:36:06;;;;;;;13.63;2.47;;;;;;;;;;5056855;28;20396;-92
2023/12/29 14:38:51;;;;;;;12.82;2.58;;;;;;;;;;5034933;28;20067;-91
2023/12/29 14:41:36;;;;;;;16.95;2.45;;;;;;;;;;5047537;28;20180;-86
2023/12/29 14:44:21;;;;;;;17.23;2.65;;;;;;;;;;5059241;28;20086;-93
2023/12/29 14:47:05;;;;;;;11.00;2.38;;;;;;;;;;5048362;28;20090;-92
2023/12/29 14:49:50;;;;;;;12.90;2.25;;;;;;;;;;5047150;28;20098;-92
2023/12/29 14:52:35;;;;;;;15.38;2.78;;;;;;;;;;5041860;28;20048;-91
2023/12/29 14:55:20;;;;;;;16.83;2.88;;;;;;;;;;5062374;28;20554;-90
2023/12/29 14:58:05;;;;;;;16.27;2.95;;;;;;;;;;5074889;28;20101;-92
2023/12/29 15:00:49;;;;;;;12.63;2.28;;;;;;;;;;5066303;28;20042;-91
2023/12/29 15:03:34;;;;;;;12.98;2.45;;;;;;;;;;5097271;28;20039;-91
2023/12/29 15:06:19;;;;;;;12.23;2.28;;;;;;;;;;5084508;28;20074;-89
2023/12/29 15:09:03;;;;;;;12.40;3.25;;;;;;;;;;5054703;28;20141;-89
2023/12/29 15:11:49;;;;;;;11.38;2.10;;;;;;;;;;5096605;28;20407;-88
2023/12/29 15:14:34;;;;;;;16.30;2.25;;;;;;;;;;5067890;28;20120;-88
2023/12/29 15:17:18;;;;;;;15.80;2.88;;;;;;;;;;5094174;28;20150;-91
2023/12/29 15:20:03;;;;;;;10.68;2.90;;;;;;;;;;5051776;28;20052;-90
2023/12/29 15:22:48;;;;;;;16.70;2.63;;;;;;;;;;5063009;28;20063;-91
2023/12/29 15:25:33;;;;;;;19.83;2.45;;;;;;;;;;5078290;28;20047;-90
2023/12/29 15:28:18;;;;;;;17.83;3.60;;;;;;;;;;5054456;28;20048;-90
2023/12/29 15:31:03;;;;;;;17.83;4.07;;;;;;;;;;5074869;28;20089;-89
2023/12/29 15:33:47;;;;;;;17.25;2.38;;;;;;;;;;5071653;28;20115;-90
2023/12/29 15:36:32;;;;;;;14.55;2.70;;;;;;;;;;5067854;28;20117;-89
2023/12/29 15:39:16;;;;;;;12.68;2.72;;;;;;;;;;5093188;28;20161;-89
2023/12/29 15:42:01;;;;;;;11.63;2.47;;;;;;;;;;5044166;28;20666;-89
2023/12/29 15:44:45;;;;;;;10.40;2.97;;;;;;;;;;5074468;28;20051;-90
2023/12/29 15:47:30;;;;;;;18.58;2.60;;;;;;;;;;5064473;28;20063;-87
2023/12/29 15:50:14;;;;;;;10.45;2.78;;;;;;;;;;5078377;28;20039;-89
2023/12/29 15:52:59;;;;;;;14.20;2.20;;;;;;;;;;5092902;28;20077;-90
2023/12/29 15:55:43;;;;;;;19.13;3.53;;;;;;;;;;5077765;28;20089;-91
2023/12/29 15:58:28;;;;;;;15.52;2.83;;;;;;;;;;5077919;28;20539;-90
2023/12/29 16:01:20;;;;;;;17.00;3.10;;;;;;;;;;5077573;28;20445;-90
2023/12/29 16:04:05;;;;;;;20.90;3.25;;;;;;;;;;5090199;28;20054;-90
2023/12/29 16:06:49;;;;;;;13.15;2.80;;;;;;;;;;5077735;28;20119;-91
2023/12/29 16:09:34;;;;;;;14.05;2.80;;;;;;;;;;5077611;28;20043;-89
2023/12/29 16:12:19;;;;;;;12.38;2.10;;;;;;;;;;5075650;28;20047;-89
2023/12/29 16:15:04;;;;;;;15.98;3.13;;;;;;;;;;5058874;28;20043;-89
2023/12/29 16:17:49;;;;;;;11.23;2.50;;;;;;;;;;5080708;28;20046;-89
2023/12/29 16:20:33;;;;;;;18.08;2.67;;;;;;;;;;5063634;28;20035;-89
2023/12/29 16:23:18;;;;;;;16.15;2.38;;;;;;;;;;5085484;28;20495;-89